Ana Sayfa
METAR-TAF:

METAR-TAF

Havaalanları :

Togiak Village, Alaska, Amerika Birleşik Devletleri

Enlem: 59-03N, Boylam: 160-24W, yükseklik: 6 m

Güncel hava durumu gözlemi

Rapor saat 05:06 UTC de 58 dakika önce yapıldı.
Rüzgar kuzey/kuzeydoğudan 11 kt
Sıcaklık -2°C
Nem 86%
Basınç 1019 hPa
Görüş mesafesi: 16.1 km
2300 ft yükseklikte az bulutlu
4100 ft yükseklikte çok bulutlu
hafif kar

METAR: PATG 010506Z AUTO 02011KT 10SM -SN FEW023 OVC041 M02/M04 A3010 RMK AO2 UPE0459SNB0459 FZRANO PNO $

Saat: 22:04 (06:04 UTC)


TAF: eksik

4.000'den fazla havaalanı için hava durumu gözlemleri ve tahminleri (METAR ve TAF raporları).

Kullanılabilir istasyonlar harita üzerinde sarı ve kırmızı noktalarla gösterilir.

İstasyonun adını görmek için fareyi noktanın üzerinde gezdirin.

Sonrasında hava gözlem ve tahminlerini görmek için tıklayın.

Haritayı değiştirmek için: yaklaştırmak için siyah artı işaretli yeşil düğmeye ve uzaklaştırmak için de eksi işaretli düğmeye hızla tıklayın; bitişik haritalar için yeşil okları kullanın.


METAR-TAF: